Time;durP1;ratioP1;P1;durP2;ratioP2;P2;SDS_P1;SDS_P2;PMS_P1;PMS_P2;Temp;Humidity;BMP_temperature;BMP_pressure;BME280_temperature;BME280_humidity;BME280_pressure;Samples;Min_cycle;Max_cycle;Signal;HPM_P1;HPM_P2
2022/08/04 00:02:43;;;;;;;3.13;1.65;;;23.30;46.90;;;;;;5073736;28;20032;-74
2022/08/04 00:05:24;;;;;;;2.80;1.63;;;23.30;46.90;;;;;;5073502;28;20413;-73
2022/08/04 00:08:00;;;;;;;7.13;1.50;;;23.30;47.30;;;;;;5073357;28;20021;-74
2022/08/04 00:10:27;;;;;;;3.95;1.67;;;23.30;47.40;;;;;;5073559;28;20037;-74
2022/08/04 00:12:54;;;;;;;1.63;1.50;;;23.30;47.40;;;;;;5073632;28;20424;-74
2022/08/04 00:15:21;;;;;;;3.80;1.58;;;23.40;47.20;;;;;;5073417;28;20386;-74
2022/08/04 00:17:54;;;;;;;1.88;1.52;;;23.40;47.20;;;;;;5073437;28;20530;-74
2022/08/04 00:20:20;;;;;;;3.33;1.52;;;23.50;47.10;;;;;;5073375;28;20039;-74
2022/08/04 00:22:47;;;;;;;4.43;1.60;;;23.50;47.30;;;;;;5073383;28;20029;-74
2022/08/04 00:25:13;;;;;;;3.38;1.42;;;23.50;46.90;;;;;;5073200;28;20058;-74
2022/08/04 00:27:39;;;;;;;3.28;1.67;;;23.40;46.80;;;;;;5073370;28;20025;-74
2022/08/04 00:30:06;;;;;;;2.47;1.58;;;23.40;46.90;;;;;;5073309;28;20107;-73
2022/08/04 00:32:32;;;;;;;6.97;1.48;;;23.40;46.80;;;;;;5073061;28;20049;-74
2022/08/04 00:34:59;;;;;;;3.08;1.48;;;23.30;47.10;;;;;;5073211;28;20025;-74
2022/08/04 00:37:26;;;;;;;1.55;1.33;;;23.20;47.40;;;;;;5073279;28;20033;-74
2022/08/04 00:39:55;;;;;;;4.28;1.20;;;23.20;47.40;;;;;;5073222;28;20024;-74
2022/08/04 00:42:40;;;;;;;3.70;1.83;;;23.20;47.40;;;;;;5073128;28;20038;-74
2022/08/04 00:45:29;;;;;;;4.90;1.40;;;23.10;47.70;;;;;;5073072;28;20465;-74
2022/08/04 00:48:15;;;;;;;2.40;1.42;;;23.10;47.60;;;;;;5063812;28;20055;-74
2022/08/04 00:50:40;;;;;;;4.13;1.42;;;23.00;47.70;;;;;;5073053;28;20028;-74
2022/08/04 00:53:26;;;;;;;1.98;1.38;;;23.00;47.90;;;;;;5072550;28;20027;-74
2022/08/04 00:56:08;;;;;;;3.05;1.65;;;23.00;47.50;;;;;;5073092;28;20021;-74
2022/08/04 00:59:10;;;;;;;3.40;1.70;;;22.90;47.70;;;;;;5072986;28;20029;-73
2022/08/04 01:02:13;;;;;;;2.80;1.60;;;22.90;47.70;;;;;;5035722;28;20068;-74
2022/08/04 01:04:47;;;;;;;5.28;1.35;;;23.00;48.00;;;;;;5072818;28;20314;-74
2022/08/04 01:07:28;;;;;;;2.58;1.33;;;23.00;47.60;;;;;;5072842;28;20025;-73
2022/08/04 01:10:00;;;;;;;1.80;1.30;;;23.00;47.30;;;;;;5072437;28;20358;-74
2022/08/04 01:12:46;;;;;;;2.28;1.40;;;23.00;47.40;;;;;;5072834;28;20122;-74
2022/08/04 01:15:39;;;;;;;1.33;1.20;;;23.00;47.30;;;;;;5072850;28;20021;-75
2022/08/04 01:18:07;;;;;;;2.85;1.30;;;22.90;47.40;;;;;;5072820;28;20025;-75
2022/08/04 01:21:03;;;;;;;2.40;1.27;;;22.90;47.40;;;;;;5072768;28;20385;-74
2022/08/04 01:23:59;;;;;;;2.17;1.25;;;22.90;47.20;;;;;;5072859;28;20485;-74
2022/08/04 01:27:02;;;;;;;2.05;1.60;;;22.90;47.50;;;;;;5081218;28;20041;-74
2022/08/04 01:29:42;;;;;;;6.43;1.50;;;22.80;47.50;;;;;;5083825;28;20464;-75
2022/08/04 01:32:30;;;;;;;2.10;1.20;;;22.70;47.50;;;;;;5072482;28;20047;-75
2022/08/04 01:35:02;;;;;;;4.32;1.20;;;22.70;47.70;;;;;;5072750;28;20032;-74
2022/08/04 01:37:56;;;;;;;1.48;1.23;;;22.60;48.00;;;;;;5072807;28;20017;-74
2022/08/04 01:40:22;;;;;;;3.50;1.40;;;22.60;48.30;;;;;;5072598;28;20021;-75
2022/08/04 01:42:51;;;;;;;4.15;1.48;;;22.50;48.60;;;;;;5072650;28;20150;-74
2022/08/04 01:45:17;;;;;;;2.20;1.23;;;22.50;48.60;;;;;;5072546;28;20032;-76
2022/08/04 01:47:49;;;;;;;2.15;1.30;;;22.50;48.70;;;;;;5072724;28;20044;-79
2022/08/04 01:50:15;;;;;;;2.45;1.45;;;22.50;48.80;;;;;;5072527;28;20020;-75
2022/08/04 01:52:42;;;;;;;2.63;1.55;;;22.50;49.00;;;;;;5073548;28;20388;-75
2022/08/04 01:55:10;;;;;;;2.65;1.10;;;22.40;49.10;;;;;;5078262;28;20048;-75
2022/08/04 01:57:42;;;;;;;4.18;1.30;;;22.40;49.30;;;;;;5079679;28;20095;-75
2022/08/04 02:00:09;;;;;;;3.03;1.35;;;22.40;49.40;;;;;;5074176;28;20063;-75
2022/08/04 02:02:34;;;;;;;2.20;1.23;;;22.30;49.50;;;;;;5073465;28;20021;-75
2022/08/04 02:05:00;;;;;;;1.83;1.20;;;22.30;49.70;;;;;;5073414;28;20036;-75
2022/08/04 02:07:54;;;;;;;2.83;1.70;;;22.30;49.60;;;;;;5076039;28;20473;-75
2022/08/04 02:10:34;;;;;;;2.40;1.30;;;22.30;49.40;;;;;;5075871;28;20081;-75
2022/08/04 02:13:06;;;;;;;4.22;1.27;;;22.20;49.40;;;;;;5075997;28;20099;-77
2022/08/04 02:15:43;;;;;;;3.78;1.42;;;22.20;49.50;;;;;;5076096;28;20103;-74
2022/08/04 02:18:23;;;;;;;1.48;1.13;;;22.20;49.80;;;;;;5075849;28;20020;-74
2022/08/04 02:20:58;;;;;;;3.65;1.30;;;22.10;49.80;;;;;;5075773;28;20052;-75
2022/08/04 02:23:33;;;;;;;4.35;1.58;;;22.10;49.90;;;;;;5075819;28;20027;-74
2022/08/04 02:26:18;;;;;;;3.30;1.60;;;22.10;50.10;;;;;;5075635;28;20358;-74
2022/08/04 02:29:08;;;;;;;4.30;1.33;;;22.10;50.50;;;;;;5075743;28;20488;-74
2022/08/04 02:31:51;;;;;;;1.75;1.27;;;22.00;50.10;;;;;;5075355;28;20378;-74
2022/08/04 02:34:43;;;;;;;1.60;1.33;;;22.00;50.40;;;;;;5075568;28;20025;-75
2022/08/04 02:37:11;;;;;;;1.65;1.38;;;22.00;50.40;;;;;;5074232;28;20349;-75
2022/08/04 02:39:36;;;;;;;2.17;1.65;;;21.90;50.80;;;;;;5075513;28;20024;-76
2022/08/04 02:42:04;;;;;;;3.03;1.50;;;21.90;50.80;;;;;;5075427;28;20020;-75
2022/08/04 02:44:30;;;;;;;2.70;1.40;;;21.80;51.30;;;;;;5075388;28;20502;-76
2022/08/04 02:46:58;;;;;;;3.70;1.70;;;21.80;51.30;;;;;;5075319;28;20373;-75
2022/08/04 02:49:26;;;;;;;2.35;1.25;;;21.70;51.50;;;;;;5075342;28;20469;-75
2022/08/04 02:51:54;;;;;;;2.50;1.92;;;21.70;51.50;;;;;;5075263;28;20056;-75
2022/08/04 02:54:26;;;;;;;2.58;1.85;;;21.80;51.40;;;;;;5075207;28;20028;-75
2022/08/04 02:56:56;;;;;;;4.35;1.63;;;21.80;51.50;;;;;;5075247;28;20021;-75
2022/08/04 02:59:25;;;;;;;4.10;1.50;;;21.70;51.80;;;;;;5075076;28;20020;-76
2022/08/04 03:01:54;;;;;;;3.42;1.55;;;21.60;52.00;;;;;;5075061;28;20570;-75
2022/08/04 03:04:22;;;;;;;3.55;1.30;;;21.60;52.30;;;;;;5075021;28;20020;-74
2022/08/04 03:07:16;;;;;;;3.53;1.35;;;21.60;52.00;;;;;;5074891;28;20047;-75
2022/08/04 03:10:20;;;;;;;3.08;1.63;;;21.60;52.10;;;;;;5073535;28;20032;-75
2022/08/04 03:13:22;;;;;;;4.18;1.60;;;21.60;52.20;;;;;;5074796;28;20028;-75
2022/08/04 03:16:21;;;;;;;2.53;1.45;;;21.60;52.50;;;;;;5074781;28;20444;-75
2022/08/04 03:19:01;;;;;;;1.75;1.38;;;21.40;53.30;;;;;;5073434;28;20053;-76
2022/08/04 03:21:46;;;;;;;5.57;1.67;;;21.20;54.10;;;;;;5074588;28;20381;-75
2022/08/04 03:24:32;;;;;;;2.85;1.45;;;21.10;55.00;;;;;;5074579;28;20024;-75
2022/08/04 03:27:01;;;;;;;9.23;2.08;;;20.90;55.80;;;;;;5073219;28;20071;-75
2022/08/04 03:29:48;;;;;;;2.92;1.75;;;20.90;56.30;;;;;;5074442;28;20052;-75
2022/08/04 03:32:44;;;;;;;2.22;1.80;;;20.80;56.60;;;;;;5074164;28;20059;-75
2022/08/04 03:35:40;;;;;;;2.28;1.63;;;20.60;57.30;;;;;;5074346;28;20105;-75
2022/08/04 03:38:27;;;;;;;;;;;20.50;57.60;;;;;;5074760;28;20024;-74
2022/08/04 03:41:29;;;;;;;1.90;1.58;;;20.50;57.70;;;;;;5074406;28;19908;-81
2022/08/04 03:44:14;;;;;;;4.05;1.55;;;20.50;57.90;;;;;;5074196;28;20024;-74
2022/08/04 03:46:45;;;;;;;3.88;1.33;;;20.60;57.80;;;;;;5073981;28;20028;-75
2022/08/04 03:49:29;;;;;;;2.90;1.40;;;20.60;57.50;;;;;;5072699;28;20476;-75
2022/08/04 03:55:24;;;;;;;3.73;1.57;;;20.60;57.70;;;;;;5074045;28;20074;-75
2022/08/04 03:58:33;;;;;;;2.95;1.67;;;20.40;58.00;;;;;;5073849;28;20263;-75
2022/08/04 04:01:07;;;;;;;1.52;1.40;;;20.40;58.30;;;;;;5073786;28;20067;-76
2022/08/04 04:03:53;;;;;;;2.55;1.90;;;20.30;58.50;;;;;;5073707;28;20047;-74
2022/08/04 04:06:48;;;;;;;1.98;1.77;;;20.20;58.60;;;;;;5073347;28;20473;-75
2022/08/04 04:09:41;;;;;;;3.78;1.60;;;20.20;58.90;;;;;;5073686;28;20031;-75
2022/08/04 04:12:25;;;;;;;4.10;1.65;;;20.20;58.70;;;;;;5074558;28;20082;-75
2022/08/04 04:15:13;;;;;;;2.03;1.83;;;20.20;58.70;;;;;;5075007;28;20034;-75
2022/08/04 04:18:14;;;;;;;2.83;1.85;;;20.30;58.30;;;;;;5067953;28;20071;-74
2022/08/04 04:20:58;;;;;;;3.15;1.35;;;20.30;57.70;;;;;;5073381;28;20020;-75
2022/08/04 04:23:47;;;;;;;2.83;1.83;;;20.30;58.70;;;;;;5073514;28;20032;-75
2022/08/04 04:26:50;;;;;;;2.00;1.73;;;20.30;58.20;;;;;;5073584;28;20032;-74
2022/08/04 04:29:46;;;;;;;5.72;1.77;;;20.30;58.20;;;;;;5085056;28;20032;-74
2022/08/04 04:32:22;;;;;;;9.55;2.10;;;20.20;58.20;;;;;;5075606;28;20552;-74
2022/08/04 04:35:04;;;;;;;3.00;1.73;;;20.20;58.10;;;;;;5072097;28;20111;-75
2022/08/04 04:37:45;;;;;;;5.05;1.70;;;20.40;57.60;;;;;;5071768;28;20384;-74
2022/08/04 04:40:54;;;;;;;3.13;1.90;;;20.40;57.60;;;;;;5073082;28;20507;-75
2022/08/04 04:43:33;;;;;;;7.43;1.65;;;20.40;57.80;;;;;;5030975;28;20029;-75
2022/08/04 04:46:10;;;;;;;2.53;1.45;;;20.30;58.20;;;;;;5068076;28;20160;-76
2022/08/04 04:48:55;;;;;;;6.80;1.50;;;20.40;58.20;;;;;;5073161;28;20078;-75
2022/08/04 04:51:39;;;;;;;5.47;1.48;;;20.50;58.10;;;;;;5073097;28;20107;-75
2022/08/04 04:54:38;;;;;;;6.57;2.03;;;20.60;57.90;;;;;;5072964;28;20043;-75
2022/08/04 04:57:13;;;;;;;2.75;1.75;;;20.60;57.70;;;;;;5073129;28;20074;-75
2022/08/04 04:59:56;;;;;;;3.92;1.70;;;20.70;57.60;;;;;;5073094;28;20051;-75
2022/08/04 05:02:32;;;;;;;2.80;1.52;;;20.70;57.60;;;;;;5072900;28;20021;-75
2022/08/04 05:05:35;;;;;;;5.18;1.50;;;20.70;57.60;;;;;;5072897;28;20069;-77
2022/08/04 05:08:39;;;;;;;2.05;1.80;;;20.70;57.50;;;;;;5072988;28;20029;-75
2022/08/04 05:11:24;;;;;;;3.08;2.03;;;20.70;57.70;;;;;;5073379;28;20021;-75
2022/08/04 05:13:58;;;;;;;2.53;1.80;;;20.60;57.80;;;;;;5073329;28;20040;-76
2022/08/04 05:16:34;;;;;;;2.28;1.90;;;20.70;57.70;;;;;;5073419;28;20067;-75
2022/08/04 05:19:23;;;;;;;4.45;2.03;;;20.80;57.30;;;;;;5072995;28;20032;-75
2022/08/04 05:21:55;;;;;;;2.03;1.70;;;21.00;57.00;;;;;;5072692;28;20031;-75
2022/08/04 05:24:24;;;;;;;4.32;1.77;;;21.20;56.20;;;;;;5072682;28;20029;-75
2022/08/04 05:26:54;;;;;;;4.85;2.22;;;21.30;56.00;;;;;;5072642;28;20105;-75
2022/08/04 05:29:35;;;;;;;1.63;1.52;;;21.30;55.60;;;;;;5071288;28;20016;-75
2022/08/04 05:32:10;;;;;;;1.90;1.70;;;21.40;54.90;;;;;;5072126;28;20139;-76
2022/08/04 05:34:44;;;;;;;3.22;1.77;;;21.50;54.90;;;;;;5072547;28;20040;-74
2022/08/04 05:37:16;;;;;;;2.17;1.95;;;21.70;54.40;;;;;;5072526;28;20543;-75
2022/08/04 05:39:52;;;;;;;1.98;1.55;;;21.90;53.90;;;;;;5073184;28;20029;-75
2022/08/04 05:42:18;;;;;;;2.65;1.60;;;21.90;54.40;;;;;;5076257;28;20032;-74
2022/08/04 05:44:45;;;;;;;4.60;1.92;;;22.10;53.50;;;;;;5076305;28;20028;-74
2022/08/04 05:47:12;;;;;;;3.72;1.70;;;22.30;53.10;;;;;;5076312;28;20020;-74
2022/08/04 05:49:39;;;;;;;3.17;1.80;;;22.40;52.50;;;;;;5076364;28;20017;-74
2022/08/04 05:52:06;;;;;;;7.28;1.90;;;22.60;52.20;;;;;;5075876;28;20025;-75
2022/08/04 05:54:34;;;;;;;3.53;1.70;;;22.70;52.00;;;;;;5074663;28;20473;-75
2022/08/04 05:57:03;;;;;;;3.10;1.70;;;22.80;51.40;;;;;;5074995;28;20062;-75
2022/08/04 05:59:30;;;;;;;3.47;1.90;;;23.00;51.00;;;;;;5076239;28;20133;-74
2022/08/04 06:01:59;;;;;;;4.70;1.60;;;23.00;50.80;;;;;;5076110;28;20032;-75
2022/08/04 06:04:34;;;;;;;2.38;1.67;;;23.20;50.50;;;;;;5076163;28;20419;-75
2022/08/04 06:06:59;;;;;;;3.17;1.83;;;23.50;50.00;;;;;;5075849;28;20032;-75
2022/08/04 06:09:25;;;;;;;3.08;1.63;;;23.60;49.50;;;;;;5075812;28;20032;-78
2022/08/04 06:11:52;;;;;;;1.95;1.63;;;23.80;48.80;;;;;;5075982;28;20024;-75
2022/08/04 06:14:22;;;;;;;5.10;1.70;;;23.90;48.60;;;;;;5078183;28;20016;-80
2022/08/04 06:16:49;;;;;;;4.28;1.70;;;24.00;48.40;;;;;;5075960;28;20110;-76
2022/08/04 06:19:16;;;;;;;2.28;1.40;;;24.10;48.40;;;;;;5075548;28;20028;-81
2022/08/04 06:21:47;;;;;;;4.82;1.73;;;24.30;48.10;;;;;;5075573;28;20051;-75
2022/08/04 06:24:17;;;;;;;2.80;1.67;;;24.40;47.90;;;;;;5074559;28;20021;-75
2022/08/04 06:26:44;;;;;;;4.43;1.67;;;24.50;47.90;;;;;;5075588;28;20124;-78
2022/08/04 06:29:25;;;;;;;7.10;1.95;;;24.60;47.60;;;;;;5075475;28;20020;-77
2022/08/04 06:32:00;;;;;;;3.25;1.98;;;24.80;47.10;;;;;;5075300;28;20028;-76
2022/08/04 06:34:27;;;;;;;3.50;1.77;;;24.90;46.50;;;;;;5075522;28;20017;-78
2022/08/04 06:36:53;;;;;;;3.00;1.75;;;25.00;46.30;;;;;;5075018;28;20028;-79
2022/08/04 06:39:22;;;;;;;5.50;1.88;;;25.10;46.40;;;;;;5075107;28;20047;-77
2022/08/04 06:41:50;;;;;;;3.25;1.60;;;25.10;46.50;;;;;;5075771;28;20023;-75
2022/08/04 06:44:17;;;;;;;4.63;2.10;;;25.20;46.70;;;;;;5083772;28;20103;-78
2022/08/04 06:46:43;;;;;;;4.30;2.00;;;25.30;46.30;;;;;;5074537;28;20431;-76
2022/08/04 06:49:10;;;;;;;4.32;2.22;;;25.40;46.00;;;;;;5073992;28;20516;-77
2022/08/04 06:51:37;;;;;;;3.78;2.20;;;25.60;45.40;;;;;;5073969;28;20028;-77
2022/08/04 06:54:03;;;;;;;8.70;2.20;;;25.70;45.00;;;;;;5075104;28;20021;-76
2022/08/04 06:56:32;;;;;;;5.57;2.55;;;25.90;45.40;;;;;;5074897;28;20024;-77
2022/08/04 06:58:59;;;;;;;4.63;1.63;;;26.00;44.90;;;;;;5074889;28;20017;-79
2022/08/04 07:01:26;;;;;;;1.63;1.50;;;26.10;44.50;;;;;;5073410;28;20430;-79
2022/08/04 07:03:52;;;;;;;3.67;1.90;;;26.20;44.00;;;;;;5074586;28;20024;-78
2022/08/04 07:06:20;;;;;;;4.18;1.60;;;26.30;43.50;;;;;;5074866;28;20405;-81
2022/08/04 07:08:45;;;;;;;3.40;1.67;;;26.40;43.20;;;;;;5074964;28;20059;-81
2022/08/04 07:11:12;;;;;;;2.38;1.45;;;26.50;43.20;;;;;;5074699;28;20048;-81
2022/08/04 07:13:38;;;;;;;4.30;1.65;;;26.70;43.30;;;;;;5074976;28;20020;-81
2022/08/04 07:16:05;;;;;;;1.85;1.60;;;26.80;43.30;;;;;;5075016;28;20063;-81
2022/08/04 07:18:31;;;;;;;6.57;2.22;;;27.00;43.70;;;;;;5075495;28;20040;-81
2022/08/04 07:20:57;;;;;;;5.72;1.80;;;27.10;43.30;;;;;;5074648;28;20021;-81
2022/08/04 07:23:24;;;;;;;3.35;1.80;;;27.30;43.10;;;;;;5080474;28;20549;-79
2022/08/04 07:25:52;;;;;;;3.35;1.75;;;27.50;42.80;;;;;;5098737;28;20109;-80
2022/08/04 07:28:18;;;;;;;6.32;2.38;;;27.60;42.40;;;;;;5095913;28;20032;-82
2022/08/04 07:30:46;;;;;;;7.90;1.85;;;27.60;42.30;;;;;;5099135;28;20059;-79
2022/08/04 07:33:12;;;;;;;7.45;2.25;;;27.70;41.90;;;;;;5095553;28;20070;-81
2022/08/04 07:35:38;;;;;;;3.85;1.83;;;27.80;41.70;;;;;;5098280;28;20024;-78
2022/08/04 07:38:04;;;;;;;9.35;2.17;;;27.90;41.40;;;;;;5081149;28;20056;-80
2022/08/04 07:40:31;;;;;;;5.50;1.90;;;28.00;41.40;;;;;;5074867;28;20066;-79
2022/08/04 07:42:58;;;;;;;4.60;1.92;;;28.10;40.90;;;;;;5074255;28;20035;-79
2022/08/04 07:45:24;;;;;;;6.53;1.73;;;28.30;40.60;;;;;;5074513;28;20119;-80
2022/08/04 07:47:49;;;;;;;2.45;1.58;;;28.50;39.70;;;;;;5072913;28;20032;-81
2022/08/04 07:50:16;;;;;;;5.68;1.85;;;28.50;39.20;;;;;;5074286;28;20381;-82
2022/08/04 07:52:43;;;;;;;5.25;2.15;;;28.60;38.90;;;;;;5074331;28;20021;-80
2022/08/04 07:55:09;;;;;;;3.83;1.83;;;28.70;39.10;;;;;;5074127;28;20554;-81
2022/08/04 07:57:35;;;;;;;5.90;1.50;;;28.90;38.80;;;;;;5074487;28;20115;-80
2022/08/04 08:00:02;;;;;;;2.78;1.48;;;29.00;38.90;;;;;;5074002;28;20024;-80
2022/08/04 08:02:28;;;;;;;2.38;1.60;;;29.10;37.10;;;;;;5073958;28;20538;-80
2022/08/04 08:04:54;;;;;;;5.82;2.00;;;29.20;37.00;;;;;;5074140;28;20058;-80
2022/08/04 08:07:20;;;;;;;4.90;2.08;;;29.20;36.60;;;;;;5073650;28;20028;-80
2022/08/04 08:09:46;;;;;;;2.88;1.90;;;29.20;35.30;;;;;;5073773;28;20143;-81
2022/08/04 08:12:12;;;;;;;2.20;2.00;;;29.30;35.30;;;;;;5073781;28;20486;-81
2022/08/04 08:14:38;;;;;;;4.10;1.70;;;29.40;35.60;;;;;;5073634;28;20043;-81
2022/08/04 08:17:04;;;;;;;3.40;1.67;;;29.50;36.20;;;;;;5073754;28;20024;-80
2022/08/04 08:19:31;;;;;;;2.08;1.88;;;29.70;35.10;;;;;;5073560;28;20025;-81
2022/08/04 08:21:58;;;;;;;3.15;1.90;;;29.80;34.30;;;;;;5073769;28;20037;-80
2022/08/04 08:24:23;;;;;;;3.33;2.00;;;29.90;34.00;;;;;;5073348;28;20020;-81
2022/08/04 08:26:49;;;;;;;3.15;1.80;;;30.00;33.60;;;;;;5073614;28;20384;-80
2022/08/04 08:29:15;;;;;;;3.67;2.20;;;30.10;33.70;;;;;;5072153;28;20020;-82
2022/08/04 08:31:42;;;;;;;2.90;1.83;;;30.20;33.50;;;;;;5071843;28;20033;-82
2022/08/04 08:34:11;;;;;;;5.47;2.22;;;30.30;32.40;;;;;;5073739;28;20025;-81
2022/08/04 08:36:51;;;;;;;3.00;1.83;;;30.30;32.20;;;;;;5073899;28;20384;-81
2022/08/04 08:39:41;;;;;;;3.50;2.22;;;30.40;32.20;;;;;;5073741;28;20098;-81
2022/08/04 08:42:15;;;;;;;5.32;2.00;;;30.50;33.20;;;;;;5072277;28;20048;-82
2022/08/04 08:44:47;;;;;;;2.53;1.92;;;30.60;32.60;;;;;;5071671;28;20090;-84
2022/08/04 08:47:33;;;;;;;3.75;1.90;;;30.80;32.40;;;;;;5071916;28;20392;-81
2022/08/04 08:50:23;;;;;;;3.78;1.88;;;30.80;31.60;;;;;;5072305;28;20022;-81
2022/08/04 08:53:15;;;;;;;2.42;2.22;;;30.90;31.70;;;;;;5073248;28;20020;-81
2022/08/04 08:56:17;;;;;;;4.25;2.00;;;30.90;31.30;;;;;;5072968;28;20027;-80
2022/08/04 08:59:09;;;;;;;1.63;1.52;;;31.00;30.80;;;;;;5073266;28;20032;-80
2022/08/04 09:02:02;;;;;;;2.15;1.95;;;31.10;30.00;;;;;;5073185;28;20029;-81
2022/08/04 09:04:38;;;;;;;3.35;1.92;;;31.10;29.70;;;;;;5074185;28;20378;-81
2022/08/04 09:07:10;;;;;;;1.83;1.35;;;31.20;30.20;;;;;;5073354;28;20063;-81
2022/08/04 09:09:52;;;;;;;2.95;1.90;;;31.20;29.90;;;;;;5075973;28;20031;-81
2022/08/04 09:12:40;;;;;;;3.72;1.98;;;31.20;30.20;;;;;;5085084;28;20100;-81
2022/08/04 09:15:13;;;;;;;2.28;2.05;;;31.30;29.30;;;;;;5081099;28;20029;-91
2022/08/04 09:17:53;;;;;;;5.13;1.58;;;31.40;28.70;;;;;;5078227;28;20097;-83
2022/08/04 09:20:27;;;;;;;1.75;1.65;;;31.30;29.30;;;;;;5076820;28;20020;-84
2022/08/04 09:23:04;;;;;;;2.30;1.83;;;31.20;29.10;;;;;;5077175;28;20029;-82
2022/08/04 09:25:39;;;;;;;4.75;1.80;;;31.40;29.10;;;;;;5075581;28;20031;-83
2022/08/04 09:28:18;;;;;;;2.55;1.80;;;31.40;28.10;;;;;;5075653;28;20025;-82
2022/08/04 09:31:08;;;;;;;3.80;1.70;;;31.60;28.60;;;;;;5077071;28;20365;-82
2022/08/04 09:33:52;;;;;;;2.20;2.03;;;31.60;28.10;;;;;;5076960;28;20041;-82
2022/08/04 09:36:43;;;;;;;3.35;2.10;;;31.60;28.10;;;;;;5076709;28;20088;-82
2022/08/04 09:39:19;;;;;;;3.05;2.00;;;31.80;27.90;;;;;;5075227;28;20024;-82
2022/08/04 09:42:09;;;;;;;6.13;2.20;;;31.90;27.20;;;;;;5075377;28;20032;-82
2022/08/04 09:45:01;;;;;;;2.95;1.92;;;32.00;27.10;;;;;;5076609;28;20027;-84
2022/08/04 09:47:45;;;;;;;1.63;1.52;;;31.90;26.50;;;;;;5071791;28;20080;-83
2022/08/04 09:50:30;;;;;;;3.53;1.38;;;31.90;26.80;;;;;;5076398;28;20020;-82
2022/08/04 09:53:04;;;;;;;4.03;1.30;;;32.00;26.80;;;;;;5075164;28;20029;-82
2022/08/04 09:55:49;;;;;;;4.10;1.80;;;32.10;25.10;;;;;;5076227;28;20065;-82
2022/08/04 09:58:35;;;;;;;1.80;1.60;;;32.30;25.10;;;;;;5074741;28;20032;-83
2022/08/04 10:01:15;;;;;;;4.28;1.85;;;32.20;25.40;;;;;;5076331;28;20019;-82
2022/08/04 10:03:47;;;;;;;3.38;1.65;;;32.30;25.00;;;;;;5076322;28;20108;-82
2022/08/04 10:06:49;;;;;;;1.88;1.42;;;32.30;24.80;;;;;;5076281;28;20043;-82
2022/08/04 10:09:42;;;;;;;3.05;1.67;;;32.40;24.20;;;;;;5074742;28;20120;-83
2022/08/04 10:12:28;;;;;;;3.70;1.50;;;32.50;23.70;;;;;;5076100;28;20048;-82
2022/08/04 10:15:18;;;;;;;1.92;1.33;;;32.60;23.90;;;;;;5075874;28;20038;-82
2022/08/04 10:18:17;;;;;;;3.45;1.70;;;32.60;23.20;;;;;;5076037;28;20086;-82
2022/08/04 10:21:09;;;;;;;1.77;1.42;;;32.80;23.10;;;;;;5076105;28;20101;-82
2022/08/04 10:23:46;;;;;;;1.35;1.25;;;32.90;20.90;;;;;;5075857;28;20017;-83
2022/08/04 10:26:42;;;;;;;3.97;1.25;;;33.10;21.70;;;;;;5075552;28;20040;-82
2022/08/04 10:29:19;;;;;;;1.48;1.38;;;33.40;20.80;;;;;;5076127;28;20400;-82
2022/08/04 10:32:03;;;;;;;1.05;1.05;;;33.40;20.80;;;;;;5075962;28;20016;-82
2022/08/04 10:34:35;;;;;;;2.85;1.38;;;33.50;21.70;;;;;;5074574;28;20031;-82
2022/08/04 10:37:23;;;;;;;2.83;1.33;;;33.60;20.90;;;;;;5075839;28;20103;-81
2022/08/04 10:42:59;;;;;;;1.55;1.30;;;33.60;19.90;;;;;;5075396;28;20027;-81
2022/08/04 10:45:32;;;;;;;5.88;1.25;;;33.60;20.60;;;;;;5075411;28;20107;-81
2022/08/04 10:48:12;;;;;;;2.88;1.40;;;33.80;20.40;;;;;;5075122;28;20416;-82
2022/08/04 10:50:47;;;;;;;3.05;1.52;;;34.00;20.30;;;;;;5075267;28;20024;-82
2022/08/04 10:53:18;;;;;;;7.95;1.67;;;34.20;20.60;;;;;;5074251;28;20507;-82
2022/08/04 10:55:54;;;;;;;5.80;1.60;;;34.50;20.00;;;;;;5075138;28;20036;-82
2022/08/04 10:58:26;;;;;;;1.45;1.35;;;34.60;19.60;;;;;;5075197;28;20016;-82
2022/08/04 11:00:56;;;;;;;1.40;1.20;;;34.70;19.70;;;;;;5073688;28;20024;-82
2022/08/04 11:03:43;;;;;;;1.88;1.40;;;34.70;19.30;;;;;;5073666;28;20388;-82
2022/08/04 11:06:10;;;;;;;7.75;1.80;;;34.80;19.50;;;;;;5074970;28;20039;-82
2022/08/04 11:08:44;;;;;;;2.33;1.55;;;34.80;19.70;;;;;;5074848;28;20349;-82
2022/08/04 11:11:21;;;;;;;1.65;1.50;;;34.70;19.10;;;;;;5074608;28;20388;-83
2022/08/04 11:13:55;;;;;;;2.67;1.60;;;34.50;20.00;;;;;;5073402;28;20082;-81
2022/08/04 11:16:31;;;;;;;4.93;1.30;;;34.60;19.90;;;;;;5073702;28;20025;-81
2022/08/04 11:19:16;;;;;;;3.30;1.60;;;34.60;19.40;;;;;;5085577;28;20028;-81
2022/08/04 11:21:58;;;;;;;4.90;1.40;;;34.80;19.70;;;;;;5080528;28;20070;-83
2022/08/04 11:24:43;;;;;;;1.65;1.50;;;35.10;19.40;;;;;;5076243;28;20350;-82
2022/08/04 11:27:39;;;;;;;1.70;1.60;;;35.40;19.00;;;;;;5074965;28;20123;-86
2022/08/04 11:30:08;;;;;;;2.75;1.63;;;35.40;18.60;;;;;;5073196;28;20033;-82
2022/08/04 11:32:42;;;;;;;2.40;1.42;;;35.50;18.70;;;;;;5074463;28;20097;-81
2022/08/04 11:35:15;;;;;;;2.30;1.70;;;35.50;18.30;;;;;;5075071;28;20067;-81
2022/08/04 11:37:48;;;;;;;3.63;1.60;;;35.40;18.40;;;;;;5074248;28;20490;-81
2022/08/04 11:40:26;;;;;;;2.70;1.65;;;35.70;18.40;;;;;;5075010;28;20069;-82
2022/08/04 11:42:59;;;;;;;2.53;1.42;;;36.10;18.30;;;;;;5074774;28;20036;-82
2022/08/04 11:45:32;;;;;;;1.52;1.30;;;36.20;17.70;;;;;;5074546;28;20035;-81
2022/08/04 11:48:14;;;;;;;3.97;1.70;;;36.40;17.10;;;;;;5076387;28;20039;-81
2022/08/04 11:50:51;;;;;;;1.58;1.48;;;36.70;17.40;;;;;;5078888;28;20778;-79
2022/08/04 11:53:24;;;;;;;6.13;1.50;;;36.50;16.80;;;;;;5099205;28;20080;-81
2022/08/04 11:55:52;;;;;;;3.95;1.60;;;36.00;16.70;;;;;;5096612;28;20094;-81
2022/08/04 11:58:19;;;;;;;3.30;1.30;;;35.50;17.30;;;;;;5105847;28;20051;-78
2022/08/04 12:01:01;;;;;;;1.63;1.38;;;35.00;18.00;;;;;;5094588;28;20027;-78
2022/08/04 12:03:55;;;;;;;3.88;1.70;;;35.00;18.50;;;;;;5065432;28;20074;-82
2022/08/04 12:06:41;;;;;;;2.03;1.58;;;35.50;18.20;;;;;;5054501;28;20111;-82
2022/08/04 12:09:10;;;;;;;3.90;1.45;;;36.10;18.40;;;;;;5055091;28;20025;-82
2022/08/04 12:11:53;;;;;;;2.13;1.35;;;36.60;17.00;;;;;;5055802;28;20053;-83
2022/08/04 12:14:59;;;;;;;2.50;1.70;;;37.10;16.60;;;;;;5053894;28;20043;-83
2022/08/04 12:17:34;;;;;;;2.80;1.70;;;36.60;16.30;;;;;;5053744;28;20025;-83
2022/08/04 12:20:04;;;;;;;2.20;1.70;;;36.40;16.90;;;;;;5053789;28;20029;-83
2022/08/04 12:22:35;;;;;;;2.20;1.60;;;36.40;17.50;;;;;;5054162;28;20021;-83
2022/08/04 12:25:11;;;;;;;4.20;1.60;;;36.30;17.00;;;;;;5053634;28;20020;-83
2022/08/04 12:28:10;;;;;;;3.55;1.77;;;36.40;17.30;;;;;;5052118;28;20398;-82
2022/08/04 12:30:42;;;;;;;2.15;1.60;;;36.70;17.00;;;;;;5053975;28;20386;-84
2022/08/04 12:33:23;;;;;;;3.95;1.50;;;36.80;16.60;;;;;;5053590;28;20037;-85
2022/08/04 12:35:57;;;;;;;2.50;1.63;;;37.00;16.70;;;;;;5053743;28;20385;-83
2022/08/04 12:38:26;;;;;;;3.17;2.00;;;37.30;16.70;;;;;;5052330;28;20055;-84
2022/08/04 12:41:01;;;;;;;4.03;1.90;;;37.30;16.10;;;;;;5052338;28;20382;-85
2022/08/04 12:43:38;;;;;;;4.65;1.52;;;37.40;16.20;;;;;;5053318;28;20393;-85
2022/08/04 12:46:07;;;;;;;6.40;1.80;;;37.70;15.90;;;;;;5051839;28;20033;-84
2022/08/04 12:48:36;;;;;;;3.03;1.70;;;37.90;15.90;;;;;;5053149;28;20025;-85
2022/08/04 12:51:02;;;;;;;4.40;1.70;;;38.00;15.50;;;;;;5052372;28;20025;-85
2022/08/04 12:53:38;;;;;;;3.47;1.75;;;38.00;15.80;;;;;;5053555;28;20033;-84
2022/08/04 12:56:07;;;;;;;3.28;1.58;;;37.80;16.20;;;;;;5051823;28;20474;-84
2022/08/04 12:58:45;;;;;;;3.78;1.65;;;37.70;16.50;;;;;;5053354;28;20033;-84
2022/08/04 13:01:19;;;;;;;2.90;1.80;;;37.70;16.40;;;;;;5051690;28;20025;-85
2022/08/04 13:03:58;;;;;;;;;;;37.80;16.20;;;;;;5053380;28;20378;-84
2022/08/04 13:06:33;;;;;;;2.20;1.70;;;37.60;16.70;;;;;;5051530;28;20377;-84
2022/08/04 13:09:12;;;;;;;2.25;1.70;;;37.30;16.60;;;;;;5051675;28;20025;-84
2022/08/04 13:11:40;;;;;;;2.03;1.63;;;37.40;16.50;;;;;;5051460;28;20032;-84
2022/08/04 13:14:08;;;;;;;3.33;1.90;;;37.40;16.50;;;;;;5051417;28;20035;-84
2022/08/04 13:16:35;;;;;;;4.32;1.58;;;37.70;15.80;;;;;;5052696;28;20036;-87
2022/08/04 13:19:02;;;;;;;3.20;1.58;;;37.80;15.70;;;;;;5051775;28;20462;-84
2022/08/04 13:21:29;;;;;;;4.35;1.85;;;38.10;15.70;;;;;;5051320;28;20021;-84
2022/08/04 13:24:05;;;;;;;3.03;1.70;;;38.20;15.30;;;;;;5053028;28;20150;-84
2022/08/04 13:26:32;;;;;;;2.08;1.52;;;38.00;15.50;;;;;;5064069;28;20033;-84
2022/08/04 13:29:01;;;;;;;2.00;1.80;;;37.30;15.70;;;;;;5055468;28;20075;-83
2022/08/04 13:31:28;;;;;;;3.47;1.60;;;36.90;15.80;;;;;;5052613;28;20504;-84
2022/08/04 13:34:04;;;;;;;2.38;1.67;;;37.20;16.10;;;;;;5051531;28;20040;-84
2022/08/04 13:36:31;;;;;;;2.25;1.67;;;37.30;15.80;;;;;;5054154;28;20021;-83
2022/08/04 13:39:01;;;;;;;1.98;1.30;;;37.80;15.40;;;;;;5052581;28;20032;-85
2022/08/04 13:41:28;;;;;;;1.23;1.13;;;38.40;15.50;;;;;;5052940;28;20063;-82
2022/08/04 13:43:57;;;;;;;3.47;1.80;;;38.90;14.60;;;;;;5053052;28;20040;-82